»·PEaware :: N333ZS KSBA-KSMO

N333ZS :: KSBA-KSMO

FLIGHT INFORMATION

Flight Status: Arrived
Operator: Privately registered:
United States
More flights under this callsign
Pilot: Judd H. (29974)
Aircraft: CESSNA 182 SKYLANE
(C182)
More flights by this aircraft type
Origin: KSBA Santa Barbara Mun
United States
Destination: KSMO Santa Monica Mun
United States
More flights between these airports :: More routes between these airports
Route: FIM VNY
File this flight plan on PilotEdge
Remarks:
Altitude:
(Current/Filed)
7,500ft
Speed:
(Current/Filed)
130kts
Departed: 13-Sep-20 12:00 PM
Arrived: 13-Sep-20 12:54 PM
Distance/Time
Traveled:
73nm/0:54
Distance/Time
To Go:
Arrived

Flight Plot

Page will automatically refresh every two minutes.

Flight plan parsing failed; only flown route is shown


Map Options




Map Legend


Flown Route
Filed Route
Departure Airport
Arrival Airport
Navaid (VOR, NDB)
Fix

Horizontal Profiles

Position Reports

Time Latitude Longitude Heading Altitude Ground
Speed
13-Sep-20 11:30 34.423508 -119.835828 164 13ft 0kts
13-Sep-20 11:31 34.423508 -119.835828 164 13ft 0kts
13-Sep-20 11:32 34.423508 -119.835828 164 13ft 0kts
13-Sep-20 11:32 34.423508 -119.835828 164 13ft 0kts
13-Sep-20 11:34 34.423508 -119.835828 164 13ft 0kts
13-Sep-20 11:35 34.423508 -119.835828 164 13ft 0kts
13-Sep-20 11:35 34.423508 -119.835828 164 13ft 0kts
13-Sep-20 11:36 34.423508 -119.835828 164 13ft 0kts
13-Sep-20 11:38 34.423508 -119.835828 164 13ft 0kts
13-Sep-20 11:38 34.423508 -119.835828 164 13ft 0kts
13-Sep-20 11:39 34.423508 -119.835828 164 13ft 0kts
13-Sep-20 11:40 34.423508 -119.835828 164 13ft 0kts
13-Sep-20 11:41 34.423508 -119.835828 164 13ft 0kts
13-Sep-20 11:42 34.423508 -119.835828 164 13ft 0kts
13-Sep-20 11:43 34.423508 -119.835828 164 13ft 0kts
13-Sep-20 11:44 34.423508 -119.835828 164 13ft 0kts
13-Sep-20 11:45 34.423507 -119.835827 164 13ft 0kts
13-Sep-20 11:46 34.423506 -119.835827 164 13ft 0kts
13-Sep-20 11:47 34.423505 -119.835827 164 13ft 0kts
13-Sep-20 11:48 34.423504 -119.835826 164 13ft 0kts
13-Sep-20 11:49 34.423503 -119.835826 164 13ft 0kts
13-Sep-20 11:50 34.423502 -119.835826 164 13ft 0kts
13-Sep-20 11:51 34.423501 -119.835825 164 13ft 0kts
13-Sep-20 11:52 34.423500 -119.835825 164 13ft 0kts
13-Sep-20 11:53 34.423499 -119.835825 164 13ft 0kts
13-Sep-20 11:54 34.423498 -119.835824 164 13ft 0kts
13-Sep-20 11:55 34.423464 -119.837163 335 13ft 16kts
13-Sep-20 11:56 34.426712 -119.835480 88 13ft 10kts
13-Sep-20 11:57 34.427102 -119.834381 357 13ft 0kts
13-Sep-20 11:58 34.427106 -119.834382 357 13ft 0kts
13-Sep-20 11:59 34.427592 -119.845502 265 151ft 91kts
13-Sep-20 12:00 34.428944 -119.882674 268 793ft 117kts
13-Sep-20 12:01 34.430909 -119.924914 270 1232ft 130kts
13-Sep-20 12:02 34.406509 -119.943945 177 1835ft 115kts
13-Sep-20 12:03 34.373639 -119.944275 178 2385ft 117kts
13-Sep-20 12:04 34.341690 -119.940627 177 3025ft 112kts
13-Sep-20 12:05 34.310729 -119.934383 143 3553ft 117kts
13-Sep-20 12:06 34.305003 -119.897739 86 4111ft 115kts
13-Sep-20 12:07 34.309538 -119.857045 85 4476ft 119kts
13-Sep-20 12:08 34.314084 -119.818722 84 5045ft 111kts
13-Sep-20 12:09 34.319179 -119.782560 84 5641ft 106kts
13-Sep-20 12:10 34.324762 -119.747893 83 6240ft 103kts
13-Sep-20 12:11 34.330904 -119.714148 83 6841ft 100kts
13-Sep-20 12:12 34.337700 -119.681386 83 7418ft 98kts
13-Sep-20 12:13 34.346394 -119.645007 80 7505ft 126kts
13-Sep-20 12:14 34.356501 -119.602713 80 7500ft 133kts
13-Sep-20 12:15 34.367433 -119.559483 72 7498ft 136kts
13-Sep-20 12:16 34.382020 -119.517260 73 7491ft 135kts
13-Sep-20 12:17 34.395517 -119.475526 73 7490ft 132kts
13-Sep-20 12:18 34.405826 -119.442644 73 7491ft 131kts
13-Sep-20 12:19 34.418522 -119.401093 73 7490ft 131kts
13-Sep-20 12:20 34.429782 -119.358992 76 7488ft 131kts
13-Sep-20 12:21 34.427960 -119.315633 99 7487ft 130kts
13-Sep-20 12:22 34.421782 -119.272259 96 7486ft 130kts
13-Sep-20 12:23 34.416679 -119.228496 98 7485ft 130kts
13-Sep-20 12:24 34.409336 -119.185363 101 7485ft 131kts
13-Sep-20 12:25 34.401628 -119.142216 101 7485ft 131kts
13-Sep-20 12:26 34.393933 -119.099138 101 7486ft 131kts
13-Sep-20 12:27 34.386364 -119.055994 99 7486ft 131kts
13-Sep-20 12:28 34.379344 -119.012756 100 7487ft 131kts
13-Sep-20 12:29 34.372298 -118.969465 100 7488ft 130kts
13-Sep-20 12:30 34.363902 -118.926574 102 7488ft 131kts
13-Sep-20 12:31 34.355557 -118.883797 102 7476ft 132kts
13-Sep-20 12:32 34.342547 -118.841027 113 6943ft 138kts
13-Sep-20 12:33 34.327358 -118.797818 110 6246ft 139kts
13-Sep-20 12:34 34.313693 -118.755100 109 5504ft 134kts
13-Sep-20 12:35 34.300895 -118.713828 109 5099ft 124kts
13-Sep-20 12:36 34.288276 -118.673296 109 5098ft 134kts
13-Sep-20 12:37 34.274909 -118.630683 112 5086ft 135kts
13-Sep-20 12:38 34.260843 -118.588597 111 5090ft 135kts
13-Sep-20 12:39 34.246781 -118.546284 112 5115ft 135kts
13-Sep-20 12:40 34.233119 -118.503902 111 5093ft 128kts
13-Sep-20 12:41 34.219421 -118.463617 111 5010ft 132kts
13-Sep-20 12:42 34.205390 -118.421869 112 4826ft 135kts
13-Sep-20 12:43 34.190877 -118.379321 112 4441ft 140kts
13-Sep-20 12:44 34.176799 -118.338528 112 4280ft 118kts
13-Sep-20 12:45 34.164043 -118.300242 107 4295ft 126kts
13-Sep-20 12:46 34.138671 -118.293258 229 4262ft 132kts
13-Sep-20 12:47 34.115223 -118.328013 235 3639ft 131kts
13-Sep-20 12:48 34.095528 -118.358915 221 2958ft 106kts
13-Sep-20 12:49 34.073672 -118.381965 221 2407ft 104kts
13-Sep-20 12:50 34.053193 -118.405822 232 1633ft 95kts
13-Sep-20 12:51 34.036390 -118.426964 227 796ft 85kts
13-Sep-20 12:52 34.020601 -118.445726 225 232ft 71kts
13-Sep-20 12:53 34.013025 -118.454136 143 178ft 10kts
13-Sep-20 12:54 34.013621 -118.451804 138 178ft 8kts
13-Sep-20 12:55 34.013155 -118.452286 323 178ft 0kts
13-Sep-20 12:56 34.013155 -118.452286 323 178ft 0kts
13-Sep-20 12:57 34.013155 -118.452286 323 178ft 0kts
13-Sep-20 12:58 34.013155 -118.452286 323 178ft 0kts
13-Sep-20 12:59 34.013155 -118.452286 323 178ft 0kts
13-Sep-20 13:00 34.013155 -118.452286 323 178ft 0kts

Navigation Log

Ident Type
Flight plan parsing failed, navigation log unavailable